North Park, Indiana
Current Conditions -  °F | °C
As of 6:54 AM on Saturday 25 Oct 2014 (Local Time) from KEVV Reporting Station
Broken Clouds Broken Clouds  
Wind Chill: 58°   Ceiling: 2900
Heat Index: 58°   Visibility: 10mi
Dew Point: 53°   Wind: 7mph
Humidity: 84%   Direction: 220°SW
Pressure: 30.01"   Gusts: NA
Location:  38.0194°N, 87.5754°W
Report Text: KEVV 251154Z 22006KT 10SM BKN029 14/12 A3001 RMK AO2 SLP162 T01440117 10150 20111 56002
Loading
Personal Weather Stations






























Interactive Weather Map New forecast layout! Learn more

10-Day Weather Forecast

Advertisements
Track Severe Weather on mobile